createdAt,value
2023-04-03T00:01:14.624Z,5.80
2023-04-03T00:03:42.685Z,5.80
2023-04-03T00:06:12.136Z,5.80
2023-04-03T00:08:41.194Z,5.70
2023-04-03T00:11:10.432Z,5.80
2023-04-03T00:13:39.070Z,5.80
2023-04-03T00:16:08.051Z,5.70
2023-04-03T00:18:36.617Z,5.80
2023-04-03T00:21:05.099Z,5.80
2023-04-03T00:23:34.807Z,5.80
2023-04-03T00:26:02.544Z,5.80
2023-04-03T00:28:30.108Z,5.80
2023-04-03T00:30:57.860Z,5.80
2023-04-03T00:33:25.508Z,5.80
2023-04-03T00:35:53.364Z,5.80
2023-04-03T00:38:21.329Z,5.80
2023-04-03T00:40:50.639Z,5.70
2023-04-03T00:43:25.193Z,5.70
2023-04-03T00:45:56.448Z,5.70
2023-04-03T00:48:33.775Z,5.60
2023-04-03T00:51:03.341Z,5.60
2023-04-03T00:53:42.635Z,5.60
2023-04-03T00:56:16.045Z,5.50
2023-04-03T00:59:00.698Z,5.50
2023-04-03T01:01:30.703Z,5.50
2023-04-03T01:04:01.138Z,5.50
2023-04-03T01:06:34.839Z,5.60
2023-04-03T01:09:09.677Z,5.50
2023-04-03T01:11:37.153Z,5.50
2023-04-03T01:14:06.885Z,5.50
2023-04-03T01:16:34.447Z,5.50
2023-04-03T01:19:04.158Z,5.40
2023-04-03T01:22:04.579Z,5.40
2023-04-03T01:24:39.524Z,5.40
2023-04-03T01:27:11.352Z,5.30
2023-04-03T01:29:39.525Z,5.30
2023-04-03T01:32:07.144Z,5.20
2023-04-03T01:34:34.693Z,5.20
2023-04-03T01:37:02.559Z,5.20
2023-04-03T01:39:30.258Z,5.20
2023-04-03T01:42:00.114Z,5.20
2023-04-03T01:44:32.036Z,5.20
2023-04-03T01:46:59.545Z,5.10
2023-04-03T01:49:29.316Z,5.10
2023-04-03T01:51:57.434Z,5.10
2023-04-03T01:54:25.043Z,5.10
2023-04-03T01:56:53.084Z,5.10
2023-04-03T01:59:21.830Z,5.10
2023-04-03T02:01:49.364Z,5.20
2023-04-03T02:04:17.041Z,5.20
2023-04-03T02:06:44.627Z,5.10
2023-04-03T02:09:12.174Z,5.10
2023-04-03T02:11:39.760Z,5.10
2023-04-03T02:14:07.749Z,5.20
2023-04-03T02:16:35.362Z,5.20
2023-04-03T02:19:02.955Z,5.20
2023-04-03T02:21:31.621Z,5.10
2023-04-03T02:23:59.206Z,5.10
2023-04-03T02:26:27.531Z,5.10
2023-04-03T02:28:55.100Z,5.20
2023-04-03T02:31:24.933Z,5.20
2023-04-03T02:33:53.114Z,5.20
2023-04-03T02:36:20.932Z,5.20
2023-04-03T02:38:54.568Z,5.10
2023-04-03T02:41:22.483Z,5.10
2023-04-03T02:43:52.140Z,5.10
2023-04-03T02:46:19.680Z,5.00
2023-04-03T02:48:47.279Z,5.00
2023-04-03T02:51:14.990Z,5.00
2023-04-03T02:53:42.531Z,5.00
2023-04-03T02:56:17.960Z,5.00
2023-04-03T02:58:45.922Z,5.00
2023-04-03T03:01:13.567Z,5.00
2023-04-03T03:03:41.866Z,5.00
2023-04-03T03:06:14.396Z,4.90
2023-04-03T03:08:42.643Z,4.90
2023-04-03T03:11:10.911Z,4.90
2023-04-03T03:13:39.048Z,4.90
2023-04-03T03:16:07.080Z,4.90
2023-04-03T03:18:35.232Z,4.90
2023-04-03T03:21:05.097Z,4.90
2023-04-03T03:23:34.090Z,4.90
2023-04-03T03:26:08.517Z,4.90
2023-04-03T03:28:38.281Z,5.00
2023-04-03T03:31:08.407Z,4.90
2023-04-03T03:33:38.393Z,4.90
2023-04-03T03:36:06.445Z,4.90
2023-04-03T03:38:34.094Z,4.90
2023-04-03T03:41:02.944Z,4.90
2023-04-03T03:43:32.434Z,4.90
2023-04-03T03:45:59.949Z,5.00
2023-04-03T03:48:28.656Z,5.10
2023-04-03T03:50:57.208Z,5.10
2023-04-03T03:53:29.065Z,5.10
2023-04-03T03:56:01.022Z,5.10
2023-04-03T03:58:30.970Z,5.10
2023-04-03T04:01:03.048Z,5.10
2023-04-03T04:03:31.344Z,5.10
2023-04-03T04:05:59.330Z,5.10
2023-04-03T04:08:27.059Z,5.10
2023-04-03T04:10:54.620Z,5.10
2023-04-03T04:13:22.200Z,5.10
2023-04-03T04:15:50.486Z,5.10
2023-04-03T04:18:18.916Z,5.10
2023-04-03T04:20:48.761Z,5.10
2023-04-03T04:23:19.774Z,5.00
2023-04-03T04:25:49.855Z,5.00
2023-04-03T04:28:18.613Z,5.00
2023-04-03T04:30:48.096Z,5.00
2023-04-03T04:33:17.435Z,5.00
2023-04-03T04:35:49.420Z,5.00
2023-04-03T04:38:19.126Z,5.00
2023-04-03T04:40:48.383Z,5.00
2023-04-03T04:43:16.947Z,5.00
2023-04-03T04:45:46.521Z,4.90
2023-04-03T04:48:14.233Z,5.00
2023-04-03T04:50:41.745Z,5.00
2023-04-03T04:53:09.522Z,4.90
2023-04-03T04:55:37.247Z,4.90
2023-04-03T04:58:05.204Z,4.90
2023-04-03T05:00:32.812Z,4.90
2023-04-03T05:03:00.809Z,4.90
2023-04-03T05:05:28.931Z,4.90
2023-04-03T05:07:56.650Z,5.00
2023-04-03T05:10:24.735Z,5.10
2023-04-03T05:12:52.239Z,5.00
2023-04-03T05:15:20.886Z,5.00
2023-04-03T05:17:49.045Z,5.10
2023-04-03T05:20:16.995Z,5.10
2023-04-03T05:22:46.633Z,5.00
2023-04-03T05:25:14.572Z,5.00
2023-04-03T05:27:45.168Z,5.00
2023-04-03T05:30:14.082Z,5.00
2023-04-03T05:32:43.341Z,5.00
2023-04-03T05:35:17.192Z,5.00
2023-04-03T05:37:46.984Z,5.00
2023-04-03T05:40:18.517Z,5.10
2023-04-03T05:42:48.198Z,5.10
2023-04-03T05:45:17.422Z,5.00
2023-04-03T05:47:45.671Z,5.10
2023-04-03T05:50:13.321Z,5.10
2023-04-03T05:52:45.506Z,5.10
2023-04-03T05:55:14.035Z,5.10
2023-04-03T05:57:41.662Z,5.10
2023-04-03T06:00:15.324Z,5.10
2023-04-03T06:02:44.925Z,5.10
2023-04-03T06:05:18.933Z,5.10
2023-04-03T06:07:47.496Z,5.00
2023-04-03T06:10:15.823Z,5.00
2023-04-03T06:12:43.547Z,5.00
2023-04-03T06:15:11.237Z,5.00
2023-04-03T06:17:39.029Z,5.10
2023-04-03T06:20:07.427Z,5.00
2023-04-03T06:22:36.306Z,5.00
2023-04-03T06:25:04.511Z,5.00
2023-04-03T06:27:32.028Z,5.10
2023-04-03T06:29:59.574Z,5.10
2023-04-03T06:32:27.382Z,5.10
2023-04-03T06:34:54.940Z,5.10
2023-04-03T06:37:23.937Z,5.10
2023-04-03T06:39:51.468Z,5.20
2023-04-03T06:42:19.082Z,5.20
2023-04-03T06:44:54.351Z,5.10
2023-04-03T06:47:21.874Z,5.20
2023-04-03T06:49:49.585Z,5.10
2023-04-03T06:52:17.316Z,5.10
2023-04-03T06:54:44.971Z,5.20
2023-04-03T06:57:12.480Z,5.30
2023-04-03T06:59:41.069Z,5.30
2023-04-03T07:02:13.462Z,5.30
2023-04-03T07:04:41.971Z,5.30
2023-04-03T07:07:09.580Z,5.40
2023-04-03T07:09:37.078Z,5.40
2023-04-03T07:12:04.685Z,5.50
2023-04-03T07:14:32.163Z,5.40
2023-04-03T07:16:59.616Z,5.50
2023-04-03T07:19:28.890Z,5.50
2023-04-03T07:21:56.576Z,5.60
2023-04-03T07:24:24.419Z,5.60
2023-04-03T07:26:53.717Z,5.70
2023-04-03T07:29:22.402Z,5.70
2023-04-03T07:31:50.298Z,5.70
2023-04-03T07:34:17.869Z,5.80
2023-04-03T07:36:45.425Z,5.80
2023-04-03T07:39:13.312Z,5.80
2023-04-03T07:41:40.955Z,5.80
2023-04-03T07:44:10.688Z,5.80
2023-04-03T07:46:39.256Z,5.90
2023-04-03T07:49:06.798Z,5.90
2023-04-03T07:51:34.394Z,6.00
2023-04-03T07:54:01.984Z,6.00
2023-04-03T07:56:29.870Z,6.00
2023-04-03T07:58:57.371Z,5.90
2023-04-03T08:01:24.916Z,5.90
2023-04-03T08:03:52.542Z,5.90
2023-04-03T08:06:29.408Z,5.90
2023-04-03T08:09:00.857Z,5.90
2023-04-03T08:11:28.455Z,5.90
2023-04-03T08:13:57.032Z,5.90
2023-04-03T08:16:28.780Z,5.90
2023-04-03T08:18:56.941Z,6.00
2023-04-03T08:21:24.462Z,6.10
2023-04-03T08:23:52.097Z,6.00
2023-04-03T08:26:22.539Z,6.00
2023-04-03T08:28:50.497Z,6.10
2023-04-03T08:31:20.826Z,6.10
2023-04-03T08:33:48.740Z,6.20
2023-04-03T08:36:27.554Z,6.20
2023-04-03T08:38:56.586Z,6.30
2023-04-03T08:41:35.996Z,6.30
2023-04-03T08:44:46.859Z,6.40
2023-04-03T08:48:06.637Z,6.40
2023-04-03T08:51:07.612Z,6.40
2023-04-03T08:53:45.540Z,6.50
2023-04-03T08:56:16.387Z,6.50
2023-04-03T08:59:08.102Z,6.60
2023-04-03T09:01:39.508Z,6.70
2023-04-03T09:04:15.028Z,6.80
2023-04-03T09:06:52.751Z,6.90
2023-04-03T09:09:42.738Z,7.00
2023-04-03T09:12:30.895Z,7.00
2023-04-03T09:15:31.198Z,7.00
2023-04-03T09:18:12.601Z,7.00
2023-04-03T09:21:25.925Z,7.00
2023-04-03T09:23:58.862Z,7.00
2023-04-03T09:26:37.606Z,7.00
2023-04-03T09:29:08.654Z,7.10
2023-04-03T09:31:43.474Z,7.20
2023-04-03T09:34:42.852Z,7.30
2023-04-03T09:37:10.360Z,7.30
2023-04-03T09:39:57.184Z,7.40
2023-04-03T09:42:26.422Z,7.40
2023-04-03T09:45:04.128Z,7.40
2023-04-03T09:47:34.835Z,7.30
2023-04-03T09:50:14.762Z,7.30
2023-04-03T09:52:44.838Z,7.30
2023-04-03T09:55:28.309Z,7.30
2023-04-03T09:58:05.352Z,7.30
2023-04-03T10:00:40.582Z,7.40
2023-04-03T10:03:36.700Z,7.40
2023-04-03T10:06:08.391Z,7.50
2023-04-03T10:08:36.376Z,7.60
2023-04-03T10:11:17.720Z,7.70
2023-04-03T10:13:57.544Z,7.80
2023-04-03T10:16:38.281Z,7.90
2023-04-03T10:19:24.928Z,7.80
2023-04-03T10:22:15.374Z,7.90
2023-04-03T10:24:54.850Z,7.80
2023-04-03T10:28:00.753Z,7.80
2023-04-03T10:30:53.721Z,7.80
2023-04-03T10:33:35.697Z,7.70
2023-04-03T10:36:50.151Z,7.70
2023-04-03T10:40:02.229Z,7.60
2023-04-03T10:42:55.093Z,7.50
2023-04-03T10:45:32.422Z,7.40
2023-04-03T10:48:06.781Z,7.40
2023-04-03T10:51:12.939Z,7.40
2023-04-03T10:54:07.302Z,7.40
2023-04-03T10:56:55.315Z,7.50
2023-04-03T10:59:37.641Z,7.60
2023-04-03T11:02:28.590Z,7.70
2023-04-03T11:05:16.442Z,7.70
2023-04-03T11:07:50.561Z,7.70
2023-04-03T11:10:45.907Z,7.70
2023-04-03T11:13:24.034Z,7.80
2023-04-03T11:15:54.109Z,7.60
2023-04-03T11:18:46.072Z,7.60
2023-04-03T11:21:35.619Z,7.70
2023-04-03T11:24:14.835Z,7.70
2023-04-03T11:26:43.956Z,7.70
2023-04-03T11:29:34.226Z,7.70
2023-04-03T11:32:36.710Z,7.70
2023-04-03T11:35:08.213Z,7.70
2023-04-03T11:37:40.903Z,7.80
2023-04-03T11:40:18.826Z,7.90
2023-04-03T11:42:54.038Z,8.00
2023-04-03T11:45:25.529Z,8.00
2023-04-03T11:48:10.184Z,8.00
2023-04-03T11:50:47.115Z,8.00
2023-04-03T11:53:14.453Z,7.80
2023-04-03T11:55:46.384Z,7.80
2023-04-03T11:58:34.098Z,7.80
2023-04-03T12:01:04.969Z,7.80
2023-04-03T12:04:05.761Z,7.80
2023-04-03T12:07:01.407Z,7.80
2023-04-03T12:09:56.393Z,7.90
2023-04-03T12:12:39.891Z,8.00
2023-04-03T12:15:22.335Z,8.10
2023-04-03T12:17:50.445Z,8.10
2023-04-03T12:20:53.753Z,8.10
2023-04-03T12:23:34.273Z,8.00
2023-04-03T12:26:20.343Z,8.00
2023-04-03T12:28:49.495Z,8.00
2023-04-03T12:31:18.062Z,8.00
2023-04-03T12:34:16.155Z,8.10
2023-04-03T12:37:29.265Z,8.10
2023-04-03T12:40:21.920Z,8.30
2023-04-03T12:43:45.635Z,8.50
2023-04-03T12:46:21.904Z,8.60
2023-04-03T12:48:52.829Z,8.60
2023-04-03T12:51:40.857Z,8.60
2023-04-03T12:54:17.364Z,8.60
2023-04-03T12:56:45.036Z,8.50
2023-04-03T12:59:27.679Z,8.50
2023-04-03T13:02:02.762Z,8.50
2023-04-03T13:04:32.961Z,8.40
2023-04-03T13:07:00.823Z,8.40
2023-04-03T13:09:32.066Z,8.60
2023-04-03T13:12:13.455Z,8.50
2023-04-03T13:14:41.930Z,8.50
2023-04-03T13:17:17.151Z,8.50
2023-04-03T13:19:49.372Z,8.60
2023-04-03T13:22:33.802Z,8.50
2023-04-03T13:25:07.194Z,8.50
2023-04-03T13:27:35.267Z,8.40
2023-04-03T13:30:05.172Z,8.50
2023-04-03T13:32:33.677Z,8.60
2023-04-03T13:35:15.601Z,8.70
2023-04-03T13:37:57.850Z,8.70
2023-04-03T13:40:28.087Z,8.60
2023-04-03T13:43:24.632Z,8.60
2023-04-03T13:46:13.218Z,8.60
2023-04-03T13:48:47.828Z,8.60
2023-04-03T13:51:15.932Z,8.60
2023-04-03T13:54:00.547Z,8.60
2023-04-03T13:56:33.858Z,8.60
2023-04-03T13:59:12.203Z,8.70
2023-04-03T14:01:47.208Z,8.70
2023-04-03T14:04:17.949Z,8.70
2023-04-03T14:06:46.835Z,8.70
2023-04-03T14:09:15.864Z,8.70
2023-04-03T14:11:43.963Z,8.60
2023-04-03T14:14:31.706Z,8.60
2023-04-03T14:17:03.784Z,8.50
2023-04-03T14:19:36.659Z,8.60
2023-04-03T14:22:25.888Z,8.50
2023-04-03T14:24:54.166Z,8.40
2023-04-03T14:27:28.131Z,8.30
2023-04-03T14:29:58.178Z,8.30
2023-04-03T14:32:28.229Z,8.20
2023-04-03T14:34:56.247Z,8.20
2023-04-03T14:37:28.753Z,8.20
2023-04-03T14:39:59.120Z,8.30
2023-04-03T14:42:34.347Z,8.30
2023-04-03T14:45:07.003Z,8.40
2023-04-03T14:47:46.376Z,8.50
2023-04-03T14:50:21.980Z,8.60
2023-04-03T14:52:54.533Z,8.60
2023-04-03T14:55:25.791Z,8.60
2023-04-03T14:57:54.437Z,8.50
2023-04-03T15:00:23.358Z,8.40
2023-04-03T15:02:51.181Z,8.40
2023-04-03T15:05:20.404Z,8.30
2023-04-03T15:07:59.025Z,8.30
2023-04-03T15:10:30.227Z,8.30
2023-04-03T15:12:58.310Z,8.30
2023-04-03T15:15:30.355Z,8.30
2023-04-03T15:17:58.905Z,8.40
2023-04-03T15:20:31.292Z,8.40
2023-04-03T15:23:01.605Z,8.40
2023-04-03T15:25:29.861Z,8.30
2023-04-03T15:27:58.283Z,8.40
2023-04-03T15:30:26.056Z,8.30
2023-04-03T15:32:54.145Z,8.40
2023-04-03T15:35:22.001Z,8.50
2023-04-03T15:37:49.739Z,8.60
2023-04-03T15:40:17.515Z,8.60
2023-04-03T15:42:45.046Z,8.60
2023-04-03T15:45:12.596Z,8.60
2023-04-03T15:47:40.287Z,8.60
2023-04-03T15:50:08.913Z,8.60
2023-04-03T15:52:36.895Z,8.60
2023-04-03T15:55:05.460Z,8.50
2023-04-03T16:00:08.874Z,8.40
2023-04-03T16:02:36.582Z,8.30
2023-04-03T16:05:04.487Z,8.20
2023-04-03T16:07:32.052Z,8.20
2023-04-03T16:09:59.585Z,8.20
2023-04-03T16:12:27.121Z,8.10
2023-04-03T16:14:54.680Z,8.20
2023-04-03T16:17:22.371Z,8.30
2023-04-03T16:19:50.176Z,8.30
2023-04-03T16:22:17.723Z,8.30
2023-04-03T16:24:45.257Z,8.40
2023-04-03T16:27:12.756Z,8.50
2023-04-03T16:29:40.407Z,8.50
2023-04-03T16:32:08.054Z,8.50
2023-04-03T16:34:36.009Z,8.50
2023-04-03T16:37:03.714Z,8.50
2023-04-03T16:39:31.269Z,8.50
2023-04-03T16:41:58.743Z,8.40
2023-04-03T16:44:27.071Z,8.30
2023-04-03T16:46:54.908Z,8.30
2023-04-03T16:49:22.470Z,8.20
2023-04-03T16:51:50.429Z,8.30
2023-04-03T16:54:17.951Z,8.20
2023-04-03T16:56:45.534Z,8.20
2023-04-03T16:59:13.162Z,8.10
2023-04-03T17:01:40.835Z,8.10
2023-04-03T17:04:08.397Z,8.10
2023-04-03T17:06:36.479Z,7.90
2023-04-03T17:09:03.990Z,7.90
2023-04-03T17:11:32.713Z,7.80
2023-04-03T17:14:00.540Z,7.70
2023-04-03T17:16:28.874Z,7.70
2023-04-03T17:18:57.180Z,7.60
2023-04-03T17:21:24.924Z,7.50
2023-04-03T17:23:58.646Z,7.50
2023-04-03T17:26:27.135Z,7.50
2023-04-03T17:28:54.623Z,7.50
2023-04-03T17:31:22.142Z,7.40
2023-04-03T17:33:49.810Z,7.40
2023-04-03T17:36:17.281Z,7.40
2023-04-03T17:38:44.865Z,7.40
2023-04-03T17:41:12.431Z,7.30
2023-04-03T17:43:40.015Z,7.20
2023-04-03T17:46:10.413Z,7.20
2023-04-03T17:48:40.852Z,7.20
2023-04-03T17:51:14.323Z,7.20
2023-04-03T17:53:42.552Z,7.10
2023-04-03T17:56:17.422Z,7.10
2023-04-03T17:58:45.616Z,7.00
2023-04-03T18:01:17.319Z,7.00
2023-04-03T18:03:45.928Z,7.00
2023-04-03T18:06:17.730Z,6.90
2023-04-03T18:09:01.301Z,6.80
2023-04-03T18:11:30.108Z,6.70
2023-04-03T18:14:02.404Z,6.70
2023-04-03T18:16:30.982Z,6.70
2023-04-03T18:19:17.638Z,6.70
2023-04-03T18:21:47.683Z,6.70
2023-04-03T18:24:18.910Z,6.70
2023-04-03T18:26:55.757Z,6.60
2023-04-03T18:29:23.643Z,6.60
2023-04-03T18:31:55.692Z,6.60
2023-04-03T18:34:23.427Z,6.50
2023-04-03T18:36:52.243Z,6.50
2023-04-03T18:39:19.807Z,6.40
2023-04-03T18:41:47.868Z,6.40
2023-04-03T18:44:20.961Z,6.30
2023-04-03T18:46:48.561Z,6.30
2023-04-03T18:49:18.014Z,6.20
2023-04-03T18:51:46.376Z,6.10
2023-04-03T18:54:13.892Z,6.10
2023-04-03T18:56:41.508Z,6.00
2023-04-03T18:59:09.051Z,6.00
2023-04-03T19:01:37.340Z,6.00
2023-04-03T19:04:05.093Z,6.00
2023-04-03T19:06:37.082Z,5.90
2023-04-03T19:09:06.701Z,5.80
2023-04-03T19:11:35.379Z,5.70
2023-04-03T19:14:15.197Z,5.70
2023-04-03T19:16:44.646Z,5.70
2023-04-03T19:19:12.623Z,5.60
2023-04-03T19:21:41.501Z,5.60
2023-04-03T19:24:11.757Z,5.60
2023-04-03T19:26:41.540Z,5.50
2023-04-03T19:29:10.242Z,5.40
2023-04-03T19:31:38.777Z,5.40
2023-04-03T19:34:07.550Z,5.40
2023-04-03T19:36:36.145Z,5.40
2023-04-03T19:39:05.405Z,5.40
2023-04-03T19:41:36.520Z,5.30
2023-04-03T19:44:07.061Z,5.30
2023-04-03T19:46:36.193Z,5.30
2023-04-03T19:49:04.579Z,5.30
2023-04-03T19:51:32.065Z,5.20
2023-04-03T19:53:59.626Z,5.20
2023-04-03T19:56:27.359Z,5.10
2023-04-03T19:58:54.984Z,5.10
2023-04-03T20:01:27.669Z,5.10
2023-04-03T20:03:55.336Z,5.10
2023-04-03T20:06:23.554Z,5.00
2023-04-03T20:08:51.169Z,5.00
2023-04-03T20:11:18.760Z,5.00
2023-04-03T20:13:50.331Z,5.00
2023-04-03T20:16:19.281Z,4.90
2023-04-03T20:18:47.583Z,4.90
2023-04-03T20:21:15.443Z,4.80
2023-04-03T20:23:42.930Z,4.80
2023-04-03T20:26:18.768Z,4.80
2023-04-03T20:28:46.291Z,4.80
2023-04-03T20:31:14.087Z,4.70
2023-04-03T20:33:41.873Z,4.70
2023-04-03T20:36:09.599Z,4.60
2023-04-03T20:38:37.082Z,4.50
2023-04-03T20:41:04.859Z,4.50
2023-04-03T20:43:32.428Z,4.40
2023-04-03T20:46:03.178Z,4.40
2023-04-03T20:48:32.239Z,4.30
2023-04-03T20:51:12.457Z,4.30
2023-04-03T20:53:41.113Z,4.20
2023-04-03T20:56:09.003Z,4.20
2023-04-03T20:58:39.118Z,4.20
2023-04-03T21:01:22.790Z,4.20
2023-04-03T21:03:54.911Z,4.10
2023-04-03T21:07:18.911Z,4.20
2023-04-03T21:10:42.946Z,4.20
2023-04-03T21:14:07.443Z,4.20
2023-04-03T21:16:37.249Z,4.30
2023-04-03T21:19:15.648Z,4.20
2023-04-03T21:21:46.027Z,4.20
2023-04-03T21:24:17.048Z,4.20
2023-04-03T21:26:45.266Z,4.20
2023-04-03T21:29:13.759Z,4.10
2023-04-03T21:31:52.084Z,4.10
2023-04-03T21:34:21.748Z,4.10
2023-04-03T21:36:49.942Z,4.10
2023-04-03T21:39:17.542Z,4.00
2023-04-03T21:41:45.433Z,4.00
2023-04-03T21:44:13.018Z,3.90
2023-04-03T21:46:40.551Z,3.90
2023-04-03T21:49:08.034Z,3.90
2023-04-03T21:51:36.750Z,3.90
2023-04-03T21:54:04.373Z,3.90
2023-04-03T21:56:31.964Z,3.80
2023-04-03T21:59:02.492Z,3.70
2023-04-03T22:01:30.275Z,3.70
2023-04-03T22:03:59.044Z,3.60
2023-04-03T22:06:26.589Z,3.60
2023-04-03T22:08:54.232Z,3.60
2023-04-03T22:11:24.524Z,3.60
2023-04-03T22:13:54.507Z,3.50
2023-04-03T22:16:23.281Z,3.50
2023-04-03T22:18:56.080Z,3.50
2023-04-03T22:21:23.558Z,3.40
2023-04-03T22:23:52.495Z,3.30
2023-04-03T22:26:21.450Z,3.30
2023-04-03T22:28:49.059Z,3.30
2023-04-03T22:31:17.060Z,3.30
2023-04-03T22:33:46.106Z,3.20
2023-04-03T22:36:14.344Z,3.20
2023-04-03T22:38:46.692Z,3.20
2023-04-03T22:41:14.213Z,3.10
2023-04-03T22:43:42.458Z,3.20
2023-04-03T22:46:10.140Z,3.10
2023-04-03T22:48:40.872Z,3.20
2023-04-03T22:51:08.513Z,3.20
2023-04-03T22:53:36.986Z,3.10
2023-04-03T22:56:10.885Z,3.10
2023-04-03T22:58:38.859Z,3.10
2023-04-03T23:01:07.789Z,3.00
2023-04-03T23:03:37.227Z,3.00
2023-04-03T23:06:06.151Z,3.00
2023-04-03T23:08:34.970Z,3.00
2023-04-03T23:11:02.746Z,3.00
2023-04-03T23:13:30.400Z,2.90
2023-04-03T23:16:01.422Z,2.80
2023-04-03T23:18:31.219Z,2.80
2023-04-03T23:21:03.511Z,2.70
2023-04-03T23:23:31.964Z,2.70
2023-04-03T23:26:01.558Z,2.80
2023-04-03T23:28:29.810Z,2.70
2023-04-03T23:31:02.645Z,2.70
2023-04-03T23:33:31.765Z,2.60
2023-04-03T23:36:01.119Z,2.50
2023-04-03T23:38:29.473Z,2.40
2023-04-03T23:40:57.049Z,2.40
2023-04-03T23:43:24.629Z,2.40
2023-04-03T23:45:52.482Z,2.30
2023-04-03T23:48:20.096Z,2.30
2023-04-03T23:50:47.588Z,2.20
2023-04-03T23:53:15.068Z,2.20
2023-04-03T23:55:42.759Z,2.20
2023-04-03T23:58:13.176Z,2.10
